Time;durP1;ratioP1;P1;durP2;ratioP2;P2;SDS_P1;SDS_P2;PMS_P1;PMS_P2;Temp;Humidity;BMP_temperature;BMP_pressure;BME280_temperature;BME280_humidity;BME280_pressure;Samples;Min_cycle;Max_cycle;Signal;HPM_P1;HPM_P2
2022/09/05 00:01:38;;;;;;;;;;;;;;;17.79;68.59;101506.84;5048111;28;20413;-77
2022/09/05 00:04:12;;;;;;;;;;;;;;;17.78;68.62;101505.13;5065884;28;19966;-76
2022/09/05 00:06:40;;;;;;;;;;;;;;;17.77;68.37;101495.56;5060088;28;19917;-77
2022/09/05 00:09:05;;;;;;;;;;;;;;;17.75;68.76;101495.59;5091428;28;20404;-77
2022/09/05 00:11:35;;;;;;;;;;;;;;;17.72;68.59;101498.34;5092036;28;19916;-77
2022/09/05 00:14:03;;;;;;;;;;;;;;;17.75;68.57;101498.22;5091347;28;19927;-77
2022/09/05 00:16:32;;;;;;;;;;;;;;;17.77;68.30;101500.81;5085805;28;19920;-78
2022/09/05 00:19:06;;;;;;;;;;;;;;;17.71;68.27;101496.63;5085247;28;19916;-77
2022/09/05 00:21:31;;;;;;;;;;;;;;;17.72;68.40;101500.97;5079625;28;19921;-78
2022/09/05 00:24:09;;;;;;;;;;;;;;;17.71;68.69;101501.06;5070482;28;19921;-78
2022/09/05 00:26:44;;;;;;;;;;;;;;;17.66;68.74;101490.72;5071583;28;19916;-77
2022/09/05 00:29:09;;;;;;;;;;;;;;;17.67;68.86;101497.69;5070624;28;19920;-78
2022/09/05 00:31:51;;;;;;;;;;;;;;;17.71;69.06;101498.44;5057101;28;20313;-77
2022/09/05 00:34:20;;;;;;;;;;;;;;;17.76;68.69;101489.44;5068197;28;19916;-78
2022/09/05 00:36:47;;;;;;;;;;;;;;;17.74;68.67;101493.06;5063374;28;19927;-78
2022/09/05 00:39:19;;;;;;;;;;;;;;;17.76;68.70;101485.94;5072954;28;19925;-78
2022/09/05 00:41:48;;;;;;;;;;;;;;;17.70;69.10;101489.69;5071262;28;19924;-78
2022/09/05 00:44:15;;;;;;;;;;;;;;;17.72;69.05;101494.88;5090842;28;19919;-78
2022/09/05 00:46:51;;;;;;;;;;;;;;;17.66;69.04;101487.22;5079717;28;19916;-78
2022/09/05 00:49:17;;;;;;;;;;;;;;;17.67;69.03;101489.81;5070296;28;19920;-78
2022/09/05 00:51:42;;;;;;;;;;;;;;;17.67;69.15;101486.31;5070612;28;19924;-78
2022/09/05 00:54:07;;;;;;;;;;;;;;;17.65;69.18;101486.34;5051208;28;20293;-78
2022/09/05 00:56:45;;;;;;;;;;;;;;;17.68;69.21;101496.75;5059691;28;19920;-77
2022/09/05 00:59:13;;;;;;;;;;;;;;;17.65;69.06;101493.41;5066950;28;19920;-78
2022/09/05 01:01:54;;;;;;;;;;;;;;;17.68;69.04;101496.75;5074898;28;19928;-78
2022/09/05 01:04:33;;;;;;;;;;;;;;;17.71;68.75;101490.53;5085732;28;20511;-78
2022/09/05 01:07:08;;;;;;;;;;;;;;;17.67;69.04;101488.94;5090315;28;19970;-77
2022/09/05 01:09:46;;;;;;;;;;;;;;;17.64;68.71;101486.44;5069179;28;20393;-77
2022/09/05 01:12:31;;;;;;;;;;;;;;;17.59;68.67;101495.34;5067615;28;19952;-77
2022/09/05 01:15:02;;;;;;;;;;;;;;;17.59;68.63;101489.22;5090237;28;19912;-77
2022/09/05 01:17:50;;;;;;;;;;;;;;;17.57;68.65;101501.53;5078034;28;19974;-77
2022/09/05 01:20:24;;;;;;;;;;;;;;;17.57;68.40;101498.91;5069781;28;19952;-78
2022/09/05 01:22:55;;;;;;;;;;;;;;;17.56;68.48;101507.72;5089952;28;19927;-78
2022/09/05 01:25:23;;;;;;;;;;;;;;;17.55;68.32;101504.22;5084197;28;19916;-78
2022/09/05 01:28:17;;;;;;;;;;;;;;;17.53;68.39;101500.78;5090103;28;19920;-77
2022/09/05 01:30:42;;;;;;;;;;;;;;;17.50;68.71;101503.53;5089360;28;19916;-78
2022/09/05 01:33:11;;;;;;;;;;;;;;;17.50;68.17;101502.69;5089575;28;19938;-78
2022/09/05 01:35:55;;;;;;;;;;;;;;;17.46;68.12;101503.72;5090759;28;20511;-78
2022/09/05 01:38:41;;;;;;;;;;;;;;;17.47;67.96;101511.53;5100401;28;20446;-78
2022/09/05 01:41:06;;;;;;;;;;;;;;;17.48;67.80;101504.50;5092572;28;19920;-77
2022/09/05 01:43:58;;;;;;;;;;;;;;;17.45;67.80;101508.13;5092936;28;20545;-78
2022/09/05 01:46:29;;;;;;;;;;;;;;;17.42;68.11;101499.50;5066028;28;20015;-78
2022/09/05 01:49:07;;;;;;;;;;;;;;;17.42;67.81;101497.72;5093819;28;19966;-78
2022/09/05 01:51:44;;;;;;;;;;;;;;;17.45;68.11;101500.22;5093863;28;19916;-78
2022/09/05 01:54:21;;;;;;;;;;;;;;;17.38;68.21;101496.13;5101856;28;19924;-77
2022/09/05 01:56:52;;;;;;;;;;;;;;;17.34;68.04;101493.66;5096107;28;20011;-77
2022/09/05 01:59:17;;;;;;;;;;;;;;;17.35;67.92;101490.97;5082569;28;19970;-77
2022/09/05 02:01:43;;;;;;;;;;;;;;;17.32;68.12;101492.88;5092442;28;19920;-77
2022/09/05 02:04:11;;;;;;;;;;;;;;;17.34;67.93;101498.94;5093536;28;19920;-78
2022/09/05 02:06:45;;;;;;;;;;;;;;;17.34;68.15;101494.53;5093619;28;19920;-77
2022/09/05 02:09:13;;;;;;;;;;;;;;;17.38;67.85;101493.47;5093917;28;20288;-77
2022/09/05 02:11:38;;;;;;;;;;;;;;;17.32;68.12;101498.13;5091227;28;19966;-77
2022/09/05 02:14:16;;;;;;;;;;;;;;;17.25;68.30;101501.88;5092852;28;19940;-76
2022/09/05 02:16:43;;;;;;;;;;;;;;;17.32;68.51;101498.13;5095503;28;20303;-78
2022/09/05 02:19:08;;;;;;;;;;;;;;;17.30;68.51;101489.44;5103194;28;19919;-78
2022/09/05 02:21:37;;;;;;;;;;;;;;;17.34;68.21;101504.19;5093465;28;19927;-78
2022/09/05 02:24:21;;;;;;;;;;;;;;;17.33;68.40;101505.94;5084423;28;19912;-78
2022/09/05 02:27:07;;;;;;;;;;;;;;;17.30;68.05;101495.56;5081654;28;19935;-78
2022/09/05 02:29:49;;;;;;;;;;;;;;;17.32;67.82;101498.13;5093323;28;19920;-78
2022/09/05 02:32:30;;;;;;;;;;;;;;;17.27;68.18;101500.06;5093324;28;19916;-77
2022/09/05 02:35:02;;;;;;;;;;;;;;;17.24;68.50;101495.78;5093447;28;20471;-77
2022/09/05 02:37:33;;;;;;;;;;;;;;;17.26;68.73;101504.47;5103122;28;19965;-77
2022/09/05 02:40:03;;;;;;;;;;;;;;;17.23;68.84;101504.59;5080754;28;20449;-77
2022/09/05 02:42:34;;;;;;;;;;;;;;;17.23;68.56;101493.22;5074730;28;19944;-77
2022/09/05 02:45:08;;;;;;;;;;;;;;;17.22;68.86;101497.63;5093564;28;19912;-77
2022/09/05 02:47:52;;;;;;;;;;;;;;;17.18;69.06;101501.25;5094776;28;19922;-77
2022/09/05 02:50:40;;;;;;;;;;;;;;;17.20;68.72;101499.44;5092527;28;19924;-80
2022/09/05 02:53:09;;;;;;;;;;;;;;;17.21;68.35;101497.66;5089469;28;19916;-79
2022/09/05 02:55:53;;;;;;;;;;;;;;;17.23;68.69;101498.47;5092821;28;20452;-80
2022/09/05 02:58:38;;;;;;;;;;;;;;;17.18;68.97;101508.25;5092330;28;20005;-80
2022/09/05 03:01:26;;;;;;;;;;;;;;;17.21;68.75;101500.28;5091448;28;19928;-80
2022/09/05 03:04:04;;;;;;;;;;;;;;;17.12;69.08;101496.22;5091881;28;20468;-80
2022/09/05 03:06:35;;;;;;;;;;;;;;;17.17;68.77;101496.06;5081906;28;19916;-79
2022/09/05 03:09:09;;;;;;;;;;;;;;;17.12;69.09;101501.47;5093265;28;19916;-80
2022/09/05 03:11:43;;;;;;;;;;;;;;;17.17;69.28;101502.19;5092600;28;20191;-80
2022/09/05 03:14:32;;;;;;;;;;;;;;;17.15;68.94;101498.75;5092536;28;19916;-79
2022/09/05 03:17:15;;;;;;;;;;;;;;;17.13;69.37;101500.56;5096747;28;19973;-80
2022/09/05 03:19:53;;;;;;;;;;;;;;;17.08;69.51;101506.91;5101918;28;19916;-80
2022/09/05 03:22:21;;;;;;;;;;;;;;;17.10;69.47;101510.31;5091995;28;19920;-80
2022/09/05 03:24:46;;;;;;;;;;;;;;;17.08;69.24;101507.78;5092301;28;19916;-79
2022/09/05 03:27:15;;;;;;;;;;;;;;;17.03;69.56;101507.91;5092435;28;19916;-80
2022/09/05 03:29:43;;;;;;;;;;;;;;;17.08;69.29;101501.66;5091847;28;19927;-80
2022/09/05 03:32:27;;;;;;;;;;;;;;;17.05;69.55;101508.75;5092376;28;20296;-80
2022/09/05 03:35:11;;;;;;;;;;;;;;;17.06;69.46;101504.31;5078854;28;19916;-80
2022/09/05 03:37:45;;;;;;;;;;;;;;;17.05;69.25;101513.13;5102257;28;19916;-80
2022/09/05 03:40:32;;;;;;;;;;;;;;;17.01;69.09;101507.13;5074128;28;19916;-80
2022/09/05 03:43:15;;;;;;;;;;;;;;;17.01;69.35;101508.88;5078756;28;19927;-80
2022/09/05 03:45:40;;;;;;;;;;;;;;;17.01;69.30;101512.38;5090805;28;19927;-80
2022/09/05 03:48:23;;;;;;;;;;;;;;;17.01;69.50;101511.50;5091895;28;19911;-79
2022/09/05 03:50:51;;;;;;;;;;;;;;;17.01;69.52;101524.63;5092499;28;19961;-80
2022/09/05 03:53:22;;;;;;;;;;;;;;;17.03;69.39;101521.03;5074872;28;20359;-80
2022/09/05 03:55:54;;;;;;;;;;;;;;;17.08;69.50;101517.41;5092055;28;20380;-79
2022/09/05 03:58:22;;;;;;;;;;;;;;;17.06;69.32;101510.44;5091805;28;19923;-80
2022/09/05 04:01:20;;;;;;;;;;;;;;;17.04;69.41;101506.16;5056688;28;20434;-80
2022/09/05 04:03:49;;;;;;;;;;;;;;;17.02;69.77;101508.84;5038630;28;19920;-80
2022/09/05 04:06:34;;;;;;;;;;;;;;;17.08;69.04;101511.22;5091025;28;19924;-79
2022/09/05 04:09:28;;;;;;;;;;;;;;;16.99;69.65;101515.97;5079778;28;19975;-80
2022/09/05 04:11:56;;;;;;;;;;;;;;;16.97;69.63;101520.41;5076622;28;19920;-80
2022/09/05 04:14:29;;;;;;;;;;;;;;;16.96;69.55;101510.84;5091909;28;19923;-79
2022/09/05 04:17:18;;;;;;;;;;;;;;;16.99;69.28;101514.22;5089000;28;20007;-79
2022/09/05 04:19:50;;;;;;;;;;;;;;;17.01;69.30;101511.50;5091594;28;19919;-79
2022/09/05 04:22:24;;;;;;;;;;;;;;;17.02;69.22;101506.22;5091431;28;19924;-80
2022/09/05 04:24:49;;;;;;;;;;;;;;;16.99;69.58;101514.22;5090662;28;19923;-79
2022/09/05 04:27:18;;;;;;;;;;;;;;;17.00;69.10;101508.03;5091410;28;19916;-80
2022/09/05 04:30:14;;;;;;;;;;;;;;;17.00;69.06;101509.78;5091857;28;19977;-80
2022/09/05 04:32:49;;;;;;;;;;;;;;;16.99;69.00;101503.72;5091430;28;19923;-80
2022/09/05 04:35:14;;;;;;;;;;;;;;;16.96;69.06;101516.94;5091538;28;19962;-80
2022/09/05 04:37:39;;;;;;;;;;;;;;;16.96;68.97;101519.56;5099188;28;19920;-80
2022/09/05 04:40:23;;;;;;;;;;;;;;;16.96;69.14;101516.94;5059810;28;19938;-80
2022/09/05 04:42:50;;;;;;;;;;;;;;;16.91;69.42;101531.09;5078225;28;19950;-79
2022/09/05 04:45:16;;;;;;;;;;;;;;;16.93;69.42;101526.69;5090316;28;20003;-79
2022/09/05 04:47:45;;;;;;;;;;;;;;;16.93;69.43;101530.19;5090996;28;19955;-80
2022/09/05 04:50:12;;;;;;;;;;;;;;;16.95;69.34;101527.47;5084555;28;19931;-80
2022/09/05 04:53:03;;;;;;;;;;;;;;;16.96;69.40;101527.44;5046693;28;19920;-80
2022/09/05 04:55:39;;;;;;;;;;;;;;;16.92;69.59;101535.47;5077234;28;19920;-80
2022/09/05 04:58:09;;;;;;;;;;;;;;;16.92;69.60;101531.06;5090828;28;19959;-79
2022/09/05 05:00:37;;;;;;;;;;;;;;;16.95;69.71;101528.34;5088007;28;20266;-79
2022/09/05 05:03:10;;;;;;;;;;;;;;;16.97;69.42;101536.16;5083875;28;20028;-79
2022/09/05 05:05:47;;;;;;;;;;;;;;;16.98;69.33;101532.63;5064840;28;19973;-80
2022/09/05 05:08:13;;;;;;;;;;;;;;;16.96;69.50;101542.31;5090378;28;19916;-80
2022/09/05 05:10:50;;;;;;;;;;;;;;;16.99;69.35;101550.97;5087136;28;19926;-79
2022/09/05 05:13:21;;;;;;;;;;;;;;;17.03;69.35;101546.44;5087024;28;19920;-79
2022/09/05 05:15:59;;;;;;;;;;;;;;;16.99;69.55;101543.09;5081360;28;20327;-79
2022/09/05 05:18:28;;;;;;;;;;;;;;;17.01;69.41;101541.25;5070913;28;19917;-80
2022/09/05 05:21:02;;;;;;;;;;;;;;;16.97;69.37;101542.25;5071286;28;20574;-79
2022/09/05 05:23:29;;;;;;;;;;;;;;;17.00;69.82;101542.16;5072788;28;20011;-80
2022/09/05 05:25:57;;;;;;;;;;;;;;;16.98;69.71;101546.59;5072542;28;19923;-79
2022/09/05 05:28:41;;;;;;;;;;;;;;;16.98;69.70;101543.13;5077160;28;19923;-80
2022/09/05 05:31:12;;;;;;;;;;;;;;;17.01;69.25;101543.88;5090283;28;19916;-79
2022/09/05 05:33:38;;;;;;;;;;;;;;;16.94;69.35;101550.25;5089619;28;20386;-80
2022/09/05 05:36:06;;;;;;;;;;;;;;;16.95;69.59;101554.59;5089665;28;20284;-80
2022/09/05 05:38:31;;;;;;;;;;;;;;;17.02;69.37;101553.47;5069660;28;19944;-79
2022/09/05 05:41:09;;;;;;;;;;;;;;;17.05;69.29;101552.50;5091719;28;19963;-80
2022/09/05 05:43:34;;;;;;;;;;;;;;;17.03;69.59;101560.41;5095784;28;19916;-80
2022/09/05 05:46:00;;;;;;;;;;;;;;;17.08;69.61;101556.78;5089660;28;19946;-80
2022/09/05 05:48:29;;;;;;;;;;;;;;;17.05;69.70;101558.63;5072586;28;20276;-79
2022/09/05 05:50:54;;;;;;;;;;;;;;;17.11;69.80;101559.31;5090813;28;19912;-80
2022/09/05 05:53:19;;;;;;;;;;;;;;;17.13;69.89;101558.34;5090511;28;20266;-80
2022/09/05 05:55:47;;;;;;;;;;;;;;;17.11;70.17;101559.31;5072199;28;20013;-80
2022/09/05 05:58:18;;;;;;;;;;;;;;;17.16;69.87;101571.34;5090510;28;20050;-80
2022/09/05 06:01:02;;;;;;;;;;;;;;;17.14;70.28;101573.19;5077849;28;19920;-79
2022/09/05 06:03:32;;;;;;;;;;;;;;;17.16;70.24;101567.88;5090095;28;19930;-79
2022/09/05 06:05:58;;;;;;;;;;;;;;;17.20;69.89;101570.34;5090850;28;19912;-80
2022/09/05 06:08:47;;;;;;;;;;;;;;;17.20;69.98;101572.97;5090033;28;20397;-80
2022/09/05 06:11:15;;;;;;;;;;;;;;;17.22;70.38;101571.13;5089741;28;19919;-80
2022/09/05 06:13:52;;;;;;;;;;;;;;;17.23;69.82;101569.38;5077605;28;19916;-80
2022/09/05 06:16:21;;;;;;;;;;;;;;;17.26;69.82;101570.13;5085083;28;19916;-80
2022/09/05 06:18:50;;;;;;;;;;;;;;;17.31;70.25;101575.19;5101015;28;20399;-80
2022/09/05 06:21:15;;;;;;;;;;;;;;;17.30;70.32;101565.59;5074791;28;19928;-79
2022/09/05 06:24:10;;;;;;;;;;;;;;;17.31;69.94;101568.19;5090539;28;19912;-79
2022/09/05 06:26:54;;;;;;;;;;;;;;;17.34;70.08;101561.94;4982547;28;19922;-79
2022/09/05 06:29:29;;;;;;;;;;;;;;;17.33;69.33;101566.34;5086406;28;19919;-80
2022/09/05 06:32:01;;;;;;;;;;;;;;;17.37;69.65;101556.59;5093997;28;19924;-80
2022/09/05 06:34:52;;;;;;;;;;;;;;;17.40;69.19;101562.59;5074355;28;19920;-80
2022/09/05 06:37:37;;;;;;;;;;;;;;;17.40;69.42;101564.34;5046795;28;20400;-80
2022/09/05 06:40:11;;;;;;;;;;;;;;;17.39;69.59;101565.25;5081880;28;19923;-80
2022/09/05 06:42:45;;;;;;;;;;;;;;;17.39;69.66;101560.00;5090758;28;20412;-80
2022/09/05 06:45:13;;;;;;;;;;;;;;;17.42;69.50;101562.53;5093287;28;19985;-79
2022/09/05 06:47:41;;;;;;;;;;;;;;;17.41;69.76;101571.34;5094498;28;19958;-80
2022/09/05 06:50:06;;;;;;;;;;;;;;;17.45;69.92;101565.03;5093206;28;19924;-79
2022/09/05 06:52:31;;;;;;;;;;;;;;;17.45;69.41;101565.03;5090172;28;19923;-79
2022/09/05 06:55:00;;;;;;;;;;;;;;;17.46;69.41;101562.38;5074965;28;20344;-79
2022/09/05 06:57:29;;;;;;;;;;;;;;;17.49;69.57;101564.88;5092106;28;19920;-80
2022/09/05 07:00:13;;;;;;;;;;;;;;;17.54;69.51;101567.31;5075230;28;19992;-80
2022/09/05 07:02:51;;;;;;;;;;;;;;;17.54;69.31;101559.44;5092029;28;19927;-80
2022/09/05 07:05:35;;;;;;;;;;;;;;;17.59;69.46;101566.28;5092459;28;19916;-80
2022/09/05 07:08:10;;;;;;;;;;;;;;;17.59;69.43;101570.66;5092865;28;19916;-80
2022/09/05 07:10:40;;;;;;;;;;;;;;;17.62;69.25;101567.09;5092485;28;19934;-79
2022/09/05 07:13:08;;;;;;;;;;;;;;;17.64;69.29;101565.25;5092472;28;19924;-80
2022/09/05 07:15:33;;;;;;;;;;;;;;;17.66;68.99;101574.78;5083712;28;20369;-79
2022/09/05 07:17:58;;;;;;;;;;;;;;;17.66;69.14;101574.78;5080762;28;19918;-80
2022/09/05 07:20:38;;;;;;;;;;;;;;;17.68;69.00;101580.84;5092539;28;19924;-80
2022/09/05 07:23:03;;;;;;;;;;;;;;;17.70;68.61;101584.28;5074342;28;19960;-79
2022/09/05 07:25:30;;;;;;;;;;;;;;;17.75;68.80;101578.84;5092631;28;19958;-79
2022/09/05 07:28:02;;;;;;;;;;;;;;;17.77;68.55;101582.28;5078157;28;19926;-80
2022/09/05 07:30:28;;;;;;;;;;;;;;;17.79;68.70;101576.06;5095252;28;20336;-79
2022/09/05 07:32:55;;;;;;;;;;;;;;;17.78;68.85;101570.84;5076580;28;19916;-80
2022/09/05 07:35:23;;;;;;;;;;;;;;;17.79;68.85;101573.44;5097134;28;19916;-80
2022/09/05 07:38:13;;;;;;;;;;;;;;;17.80;69.02;101579.53;5101525;28;19924;-80
2022/09/05 07:40:51;;;;;;;;;;;;;;;17.81;69.08;101574.22;5085030;28;19919;-79
2022/09/05 07:43:38;;;;;;;;;;;;;;;17.83;68.65;101569.75;5092021;28;19916;-80
2022/09/05 07:46:14;;;;;;;;;;;;;;;17.84;68.82;101576.72;5091348;28;20003;-80
2022/09/05 07:48:42;;;;;;;;;;;;;;;17.86;69.04;101580.13;5091564;28;19916;-79
2022/09/05 07:51:12;;;;;;;;;;;;;;;17.89;68.60;101577.41;5086163;28;19916;-79
2022/09/05 07:53:40;;;;;;;;;;;;;;;17.91;68.99;101586.09;5092098;28;19920;-80
2022/09/05 07:56:07;;;;;;;;;;;;;;;17.93;69.12;101584.25;5091716;28;20388;-80
2022/09/05 07:58:43;;;;;;;;;;;;;;;17.99;68.10;101584.03;5091476;28;21711;-79
2022/09/05 08:01:11;;;;;;;;;;;;;;;17.98;69.08;101584.06;5090939;28;20368;-79
2022/09/05 08:03:36;;;;;;;;;;;;;;;17.98;68.88;101584.06;5091057;28;19939;-79
2022/09/05 08:06:04;;;;;;;;;;;;;;;18.01;68.65;101582.19;5073624;28;20380;-80
2022/09/05 08:08:37;;;;;;;;;;;;;;;18.00;69.08;101572.59;5091177;28;20475;-80
2022/09/05 08:11:10;;;;;;;;;;;;;;;18.03;68.56;101567.22;5078176;28;19924;-80
2022/09/05 08:13:39;;;;;;;;;;;;;;;18.05;69.07;101568.00;5090788;28;19931;-79
2022/09/05 08:16:08;;;;;;;;;;;;;;;18.06;68.70;101560.97;5091919;28;19916;-79
2022/09/05 08:18:39;;;;;;;;;;;;;;;18.16;67.48;101560.53;5094863;28;19916;-79
2022/09/05 08:21:12;;;;;;;;;;;;;;;18.12;68.43;101555.47;5086855;28;19920;-79
2022/09/05 08:23:56;;;;;;;;;;;;;;;18.10;68.07;101559.94;5091694;28;20005;-80
2022/09/05 08:26:40;;;;;;;;;;;;;;;18.13;68.34;101567.69;5095381;28;20308;-79
2022/09/05 08:29:21;;;;;;;;;;;;;;;18.18;67.39;101571.84;5085066;28;20006;-80
2022/09/05 08:31:51;;;;;;;;;;;;;;;18.15;67.42;101565.88;5075527;28;19920;-79
2022/09/05 08:34:20;;;;;;;;;;;;;;;18.27;65.57;101561.91;5072566;28;20372;-79
2022/09/05 08:36:47;;;;;;;;;;;;;;;18.21;67.56;101563.00;5056250;28;20403;-79
2022/09/05 08:39:18;;;;;;;;;;;;;;;18.18;68.35;101565.75;5090546;28;19920;-79
2022/09/05 08:41:56;;;;;;;;;;;;;;;18.16;68.37;101563.19;5094243;28;20503;-80
2022/09/05 08:44:40;;;;;;;;;;;;;;;18.16;68.21;101557.06;5089901;28;20384;-80
2022/09/05 08:47:19;;;;;;;;;;;;;;;18.16;67.60;101550.03;5090282;28;19926;-80
2022/09/05 08:50:11;;;;;;;;;;;;;;;18.18;68.37;101552.63;5090751;28;19950;-80
2022/09/05 08:52:42;;;;;;;;;;;;;;;18.18;68.17;101550.81;5090028;28;19927;-80
2022/09/05 08:55:20;;;;;;;;;;;;;;;18.18;67.44;101544.72;5090398;28;20444;-80
2022/09/05 08:57:45;;;;;;;;;;;;;;;18.18;67.67;101548.19;5090994;28;19974;-80
2022/09/05 09:00:14;;;;;;;;;;;;;;;18.21;67.73;101551.63;5073238;28;19916;-79
2022/09/05 09:02:57;;;;;;;;;;;;;;;18.20;67.13;101545.50;5091414;28;19942;-79
2022/09/05 09:05:29;;;;;;;;;;;;;;;18.28;66.54;101548.69;5090021;28;19999;-80
2022/09/05 09:07:56;;;;;;;;;;;;;;;18.25;66.88;101545.31;5072649;28;20404;-80
2022/09/05 09:10:21;;;;;;;;;;;;;;;18.24;66.80;101552.38;5090139;28;19973;-80
2022/09/05 09:13:02;;;;;;;;;;;;;;;18.27;66.54;101546.13;5090401;28;20285;-80
2022/09/05 09:15:33;;;;;;;;;;;;;;;18.26;66.53;101537.38;5090480;28;19916;-79
2022/09/05 09:18:06;;;;;;;;;;;;;;;18.32;66.45;101537.13;5074910;28;19915;-79
2022/09/05 09:20:32;;;;;;;;;;;;;;;18.29;66.72;101534.63;5095186;28;19939;-80
2022/09/05 09:23:26;;;;;;;;;;;;;;;18.28;66.68;101527.63;5095700;28;19993;-79
2022/09/05 09:25:51;;;;;;;;;;;;;;;18.32;66.44;101529.22;5080147;28;20383;-79
2022/09/05 09:28:37;;;;;;;;;;;;;;;18.47;63.93;101523.38;5090934;28;20026;-79
2022/09/05 09:31:14;;;;;;;;;;;;;;;18.35;66.34;101521.22;5089908;28;19928;-80
2022/09/05 09:33:45;;;;;;;;;;;;;;;18.34;66.51;101516.88;5090108;28;19923;-79
2022/09/05 09:36:23;;;;;;;;;;;;;;;18.33;66.32;101514.31;5090091;28;19928;-79
2022/09/05 09:38:51;;;;;;;;;;;;;;;18.44;65.47;101506.81;5097899;28;19919;-79
2022/09/05 09:41:24;;;;;;;;;;;;;;;18.50;65.21;101503.97;5071424;28;19920;-80
2022/09/05 09:44:05;;;;;;;;;;;;;;;18.39;66.06;101508.81;5090079;28;19924;-79
2022/09/05 09:46:37;;;;;;;;;;;;;;;18.38;66.11;101510.56;5091188;28;20385;-80
2022/09/05 09:49:06;;;;;;;;;;;;;;;18.43;65.43;101508.59;5090261;28;20339;-79
2022/09/05 09:51:34;;;;;;;;;;;;;;;18.40;65.76;101513.13;5090336;28;19916;-79
2022/09/05 09:54:05;;;;;;;;;;;;;;;18.38;65.80;101515.81;5073533;28;20381;-79
2022/09/05 09:56:57;;;;;;;;;;;;;;;18.45;65.17;101508.53;5090557;28;20426;-80
2022/09/05 09:59:22;;;;;;;;;;;;;;;18.44;65.54;101507.69;5047211;28;19920;-79
2022/09/05 10:01:53;;;;;;;;;;;;;;;18.43;65.62;101505.97;5089469;28;20266;-79
2022/09/05 10:04:18;;;;;;;;;;;;;;;18.43;65.52;101510.34;5092310;28;19943;-79
2022/09/05 10:07:04;;;;;;;;;;;;;;;18.42;65.54;101514.75;5093838;28;19923;-79
2022/09/05 10:09:32;;;;;;;;;;;;;;;18.45;65.48;101505.91;5093444;28;20300;-79
2022/09/05 10:12:15;;;;;;;;;;;;;;;18.45;65.28;101506.78;5093408;28;19918;-80
2022/09/05 10:14:44;;;;;;;;;;;;;;;18.42;65.45;101498.97;5093628;28;19916;-79
2022/09/05 10:17:28;;;;;;;;;;;;;;;18.44;65.43;101494.53;5100092;28;19923;-80
2022/09/05 10:19:57;;;;;;;;;;;;;;;18.56;64.71;101487.91;5089778;28;19920;-80
2022/09/05 10:22:25;;;;;;;;;;;;;;;18.46;65.00;101492.72;5098536;28;19920;-79
2022/09/05 10:25:07;;;;;;;;;;;;;;;18.57;64.64;101485.22;5095807;28;19920;-80
2022/09/05 10:27:38;;;;;;;;;;;;;;;18.48;64.98;101485.59;5075906;28;19936;-79
2022/09/05 10:30:14;;;;;;;;;;;;;;;18.48;65.27;101488.22;5092993;28;19912;-79
2022/09/05 10:32:40;;;;;;;;;;;;;;;18.72;62.21;101488.97;5075543;28;19923;-79
2022/09/05 10:35:17;;;;;;;;;;;;;;;18.56;62.97;101482.66;5086731;28;19924;-80
2022/09/05 10:37:48;;;;;;;;;;;;;;;18.52;64.51;101486.34;5103523;28;19999;-79
2022/09/05 10:40:16;;;;;;;;;;;;;;;18.50;64.95;101480.28;5088598;28;19917;-80
2022/09/05 10:42:46;;;;;;;;;;;;;;;18.49;65.23;101482.06;5076466;28;19920;-80
2022/09/05 10:45:30;;;;;;;;;;;;;;;18.50;65.32;101482.91;5093210;28;20023;-80
2022/09/05 10:48:02;;;;;;;;;;;;;;;18.55;64.83;101475.69;5092998;28;19916;-79
2022/09/05 10:50:56;;;;;;;;;;;;;;;18.54;65.04;101474.81;5093494;28;20426;-80
2022/09/05 10:53:40;;;;;;;;;;;;;;;18.54;65.04;101468.72;5075521;28;19977;-80
2022/09/05 10:56:18;;;;;;;;;;;;;;;18.55;65.10;101462.50;5067903;28;19997;-79
2022/09/05 10:59:03;;;;;;;;;;;;;;;18.56;65.05;101457.22;5074727;28;20304;-79
2022/09/05 11:01:53;;;;;;;;;;;;;;;18.56;65.58;101451.94;5092679;28;20438;-79
2022/09/05 11:04:38;;;;;;;;;;;;;;;18.99;52.32;101447.41;5082653;28;19942;-80
2022/09/05 11:07:03;;;;;;;;;;;;;;;18.71;64.33;101450.41;5082349;28;19947;-79
2022/09/05 11:09:48;;;;;;;;;;;;;;;18.60;64.71;101442.97;5074327;28;19920;-79
2022/09/05 11:12:31;;;;;;;;;;;;;;;18.55;64.49;101450.22;5063951;28;19946;-79
2022/09/05 11:15:02;;;;;;;;;;;;;;;18.56;64.92;101445.81;5100830;28;19935;-79
2022/09/05 11:17:50;;;;;;;;;;;;;;;18.55;64.69;101438.84;5097598;28;19923;-80
2022/09/05 11:20:27;;;;;;;;;;;;;;;18.68;60.17;101432.13;5101172;28;19966;-80
2022/09/05 11:22:56;;;;;;;;;;;;;;;18.60;64.74;101431.63;5092286;28;19974;-80
2022/09/05 11:25:23;;;;;;;;;;;;;;;18.57;64.73;101432.59;5093007;28;19916;-80
2022/09/05 11:27:53;;;;;;;;;;;;;;;18.58;64.73;101428.19;5100400;28;19919;-79
2022/09/05 11:30:20;;;;;;;;;;;;;;;18.59;64.79;101429.91;5103329;28;19916;-79
2022/09/05 11:33:04;;;;;;;;;;;;;;;18.67;59.87;101418.13;5108411;28;19916;-79
2022/09/05 11:35:46;;;;;;;;;;;;;;;18.79;63.35;101426.38;5112692;28;20400;-79
2022/09/05 11:38:25;;;;;;;;;;;;;;;18.62;64.28;101419.25;5104502;28;19916;-80
2022/09/05 11:40:51;;;;;;;;;;;;;;;18.59;64.53;101419.38;5091925;28;19924;-80
2022/09/05 11:43:19;;;;;;;;;;;;;;;18.74;63.87;101423.97;5111966;28;20498;-80
2022/09/05 11:45:48;;;;;;;;;;;;;;;18.72;63.91;101420.53;5103010;28;19922;-79
2022/09/05 11:48:31;;;;;;;;;;;;;;;18.77;60.69;101422.97;5111932;28;19922;-80
2022/09/05 11:51:15;;;;;;;;;;;;;;;18.74;62.91;101420.47;5097573;28;19912;-79
2022/09/05 11:53:59;;;;;;;;;;;;;;;18.79;63.48;101419.34;5097312;28;20329;-79
2022/09/05 11:56:43;;;;;;;;;;;;;;;18.64;64.09;101420.88;5065968;28;20000;-80
2022/09/05 11:59:22;;;;;;;;;;;;;;;18.86;55.50;101414.66;5073290;28;20380;-79
2022/09/05 12:02:22;;;;;;;;;;;;;;;18.71;63.50;101421.47;5090843;28;19920;-79
2022/09/05 12:04:53;;;;;;;;;;;;;;;18.63;64.04;101419.16;5091763;28;19916;-79
2022/09/05 12:07:34;;;;;;;;;;;;;;;18.63;64.27;101415.66;5079498;28;20296;-79
2022/09/05 12:09:59;;;;;;;;;;;;;;;18.62;64.41;101414.84;5091800;28;20380;-79
2022/09/05 12:12:38;;;;;;;;;;;;;;;18.67;61.07;101410.22;5073579;28;19968;-79
2022/09/05 12:15:09;;;;;;;;;;;;;;;18.72;64.24;101414.44;5094674;28;19998;-79
2022/09/05 12:17:40;;;;;;;;;;;;;;;18.91;53.58;101408.25;5092341;28;19908;-79
2022/09/05 12:20:13;;;;;;;;;;;;;;;19.03;61.36;101412.13;5091250;28;19926;-80
2022/09/05 12:22:45;;;;;;;;;;;;;;;18.76;63.09;101413.34;5090965;28;20384;-79
2022/09/05 12:25:19;;;;;;;;;;;;;;;18.76;61.79;101405.47;5091096;28;19916;-79
2022/09/05 12:27:47;;;;;;;;;;;;;;;18.73;64.07;101409.09;5090668;28;19967;-80
2022/09/05 12:30:14;;;;;;;;;;;;;;;19.20;50.87;101397.25;5091276;28;20029;-79
2022/09/05 12:32:49;;;;;;;;;;;;;;;18.96;61.03;101405.41;5091596;28;19912;-80
2022/09/05 12:35:21;;;;;;;;;;;;;;;18.93;61.08;101402.91;5091724;28;19947;-80
2022/09/05 12:37:58;;;;;;;;;;;;;;;18.75;62.88;101401.97;5098195;28;19916;-79
2022/09/05 12:40:27;;;;;;;;;;;;;;;18.72;63.53;101402.09;5084932;28;19963;-80
2022/09/05 12:42:58;;;;;;;;;;;;;;;18.80;63.29;101400.00;5083822;28;19927;-79
2022/09/05 12:45:31;;;;;;;;;;;;;;;18.72;63.89;101403.91;5073342;28;20382;-79
2022/09/05 12:48:10;;;;;;;;;;;;;;;18.72;63.78;101407.38;5090793;28;20448;-79
2022/09/05 12:50:53;;;;;;;;;;;;;;;18.76;64.31;101401.06;5091137;28;19916;-79
2022/09/05 12:53:19;;;;;;;;;;;;;;;18.71;63.97;101400.41;5090734;28;19924;-80
2022/09/05 12:55:56;;;;;;;;;;;;;;;18.74;62.47;101394.16;5098791;28;19952;-79
2022/09/05 12:58:42;;;;;;;;;;;;;;;19.04;54.53;101384.88;5091077;28;19961;-80
2022/09/05 13:01:16;;;;;;;;;;;;;;;18.81;63.73;101393.78;5085168;28;19920;-79
2022/09/05 13:03:47;;;;;;;;;;;;;;;19.18;52.65;101375.41;5103907;28;20319;-79
2022/09/05 13:06:19;;;;;;;;;;;;;;;18.86;63.23;101386.56;5108137;28;19923;-79
2022/09/05 13:08:48;;;;;;;;;;;;;;;19.39;50.52;101383.22;5090338;28;19920;-80
2022/09/05 13:11:16;;;;;;;;;;;;;;;19.05;61.67;101390.03;5096673;28;20062;-80